Flight Track Log - Related Links

Times and Time Zones

All times are in EDT time to prevent confusion due to time zone crossing. See the AWI3704 flight status page for this flight to view local times or setup timezone preferences in your user account.


Time Position Orientation Groundspeed Altitude Reporting Facility
EDT Latitude Longitude Course Direction KTS MPH feet Rate Location/Type
Sun 09:56:03 AM 39.8500 -75.2833 North 154 177 1,300  Level Philadelphia TRACON
Sun 09:57:21 AM 39.7833 -75.3500 218° Southwest 273 314 4,200 2,476 Climbing Philadelphia TRACON
Sun 09:58:00 AM 39.8158 -74.8625 105° East  Level FlightAware Approximate
Sun 09:58:09 AM 39.7333 -75.3833 207° Southwest 276 318 6,500  Level Philadelphia TRACON
Sun 09:59:00 AM 39.7908 -74.7373 105° East  Level FlightAware Approximate
Sun 09:59:09 AM 39.7000 -75.2833 113° Southeast 326 375 9,500  Level Philadelphia TRACON
Sun 10:00:00 AM 39.8387 -74.6447 37° Northeast  Level FlightAware Approximate
Sun 10:00:09 AM 39.7167 -75.1667 79° East 335 386 11,200  Level Philadelphia TRACON
Sun 10:01:00 AM 39.9177 -74.5667 North  Level FlightAware Approximate
Sun 10:02:29 AM 39.7719 -74.8547 77° East 393 452 12,300  Level New York Center
Sun 10:03:31 AM 39.8017 -74.7131 75° East 393 452 14,700 1,918 Climbing New York Center
Sun 10:04:31 AM 39.8839 -74.6231 40° Northeast 367 422 16,200 1,450 Climbing New York Center
Sun 10:05:31 AM 39.9722 -74.5386 36° Northeast 367 422 17,600 1,271 Climbing New York Center
Sun 10:06:29 AM 40.0664 -74.4542 34° Northeast 394 453 18,700 1,109 Climbing New York Center
Sun 10:07:30 AM 40.1542 -74.3828 32° Northeast 400 460 19,800 1,131 Climbing New York Center
Sun 10:08:31 AM 40.2525 -74.3036 32° Northeast 405 466 21,000 1,110 Climbing New York Center
Sun 10:10:23 AM 40.4517 -74.1392 32° Northeast 478 550 23,000 1,047 Climbing Boston Center
Sun 10:11:23 AM 40.5569 -74.0572 31° Northeast 446 513 24,000 500 Climbing Boston Center
Sun 10:12:23 AM 40.6622 -73.9750 31° Northeast 440 506 24,000  Level Boston Center
Sun 10:13:23 AM 40.7656 -73.8925 31° Northeast 430 495 24,000  Level Boston Center
Sun 10:14:23 AM 40.8628 -73.7819 41° Northeast 443 510 24,000  Level Boston Center
Sun 10:15:23 AM 40.9536 -73.6603 45° Northeast 453 521 24,000 -450 Level Boston Center
Sun 10:16:23 AM 41.0528 -73.5494 40° Northeast 453 521 23,100 -900 Descending Boston Center
Sun 10:17:23 AM 41.1619 -73.4658 30° Northeast 447 514 22,200 -850 Descending Boston Center
Sun 10:18:23 AM 41.2811 -73.4317 12° North 440 506 21,400 -850 Descending Boston Center
Sun 10:19:23 AM 41.3981 -73.3975 12° North 428 493 20,500 -950 Descending Boston Center
Sun 10:20:23 AM 41.5131 -73.3606 14° North 417 480 19,500 -1,000 Descending Boston Center
Sun 10:21:23 AM 41.6067 -73.3756 353° North 394 453 18,500 -1,200 Descending Boston Center
Sun 10:22:23 AM 41.7169 -73.4108 347° North 372 428 17,100 -1,400 Descending Boston Center
Sun 10:23:23 AM 41.8019 -73.4342 348° North 360 414 15,700 -1,500 Descending Boston Center
Sun 10:24:23 AM 41.9061 -73.4667 347° North 341 392 14,100 -1,625 Descending Boston Center
Sun 10:24:59 AM 41.9622 -73.4842 347° North 347 399 13,100 -1,600 Descending Boston Center
Sun 10:25:23 AM 41.9892 -73.4931 346° North 341 392 12,500 -1,574 Descending Boston Center
Sun 10:26:00 AM 42.0556 -73.5111 349° North 351 404 11,500 -1,500 Descending Boston Center
Sun 10:26:23 AM 42.0847 -73.5228 343° North 347 399 11,000 -492 Descending Boston Center
Sun 10:27:01 AM 42.1489 -73.5544 340° North 326 375 11,000  Level Boston Center
Sun 10:27:23 AM 42.1675 -73.5661 335° Northwest 337 388 11,000 -100 Level Boston Center
Sun 10:28:01 AM 42.2256 -73.6008 336° Northwest 299 344 10,900 -600 Descending Boston Center
Sun 10:28:23 AM 42.2422 -73.6094 339° North 313 360 10,400 -1,967 Descending Boston Center
Sun 10:29:02 AM 42.2939 -73.6414 335° Northwest 257 296 8,900 -2,100 Descending Boston Center
Sun 10:29:23 AM 42.3106 -73.6500 339° North 288 331 8,300 -1,279 Descending Boston Center
Sun 10:30:03 AM 42.3622 -73.6819 335° Northwest 263 303 7,600 -1,100 Descending Boston Center
Sun 10:30:23 AM 42.3769 -73.6908 336° Northwest 260 299 7,200 -1,909 Descending Boston Center
Sun 10:31:09 AM 42.4328 -73.7228 337° Northwest 256 295 5,500 -1,963 Descending Boston Center
Sun 10:32:10 AM 42.4969 -73.7608 336° Northwest 241 277 3,700 -1,641 Descending Boston Center
Sun 10:33:17 AM 42.5653 -73.7989 338° Northwest 248 285 2,000 -1,522 Descending Boston Center

Login

Don't have an account? Register now (free) for customized features, flight alerts, and more!